Time;durP1;ratioP1;P1;durP2;ratioP2;P2;SDS_P1;SDS_P2;PMS_P1;PMS_P2;Temp;Humidity;BMP_temperature;BMP_pressure;BME280_temperature;BME280_humidity;BME280_pressure;Samples;Min_cycle;Max_cycle;Signal;HPM_P1;HPM_P2
2022/12/31 00:00:39;;;;;;;;;0.67;0.67;;;;;16.09;100.00;100524.41;5094960;27;45195;-77
2022/12/31 00:03:08;;;;;;;;;0.00;0.00;;;;;16.09;100.00;100535.06;5090625;27;45293;-76
2022/12/31 00:05:34;;;;;;;;;0.67;0.67;;;;;16.06;100.00;100541.28;5096437;27;45721;-74
2022/12/31 00:08:00;;;;;;;;;2.00;0.00;;;;;16.08;100.00;100543.91;5086754;27;45411;-74
2022/12/31 00:10:26;;;;;;;;;2.67;0.00;;;;;16.05;100.00;100533.34;5096341;27;45251;-76
2022/12/31 00:12:51;;;;;;;;;0.00;0.00;;;;;16.04;100.00;100543.13;5089510;27;45149;-77
2022/12/31 00:15:17;;;;;;;;;0.00;0.00;;;;;16.01;100.00;100519.19;5085964;27;61610;-75
2022/12/31 00:17:42;;;;;;;;;0.00;0.00;;;;;16.05;100.00;100518.25;5097318;27;45307;-74
2022/12/31 00:20:08;;;;;;;;;0.00;0.00;;;;;16.04;100.00;100532.47;5081299;27;54439;-75
2022/12/31 00:22:33;;;;;;;;;1.67;0.00;;;;;16.02;100.00;100522.72;5079210;27;45239;-74
2022/12/31 00:24:59;;;;;;;;;0.00;0.00;;;;;15.96;100.00;100529.03;5091729;27;65008;-76
2022/12/31 00:27:24;;;;;;;;;0.00;0.00;;;;;15.93;100.00;100553.94;5096676;27;57314;-77
2022/12/31 00:29:50;;;;;;;;;0.00;0.00;;;;;15.95;100.00;100570.75;5093537;27;56325;-74
2022/12/31 00:32:15;;;;;;;;;0.33;0.33;;;;;15.92;100.00;100551.28;5097036;27;52209;-75
2022/12/31 00:34:40;;;;;;;;;2.00;0.00;;;;;15.93;100.00;100566.38;5087038;27;61955;-75
2022/12/31 00:37:06;;;;;;;;;1.00;1.00;;;;;15.92;100.00;100552.16;5086728;27;59493;-75
2022/12/31 00:39:31;;;;;;;;;1.00;0.00;;;;;15.92;100.00;100570.78;5097105;27;56313;-77
2022/12/31 00:41:56;;;;;;;;;0.00;0.00;;;;;15.96;100.00;100577.84;5100626;27;51521;-74
2022/12/31 00:44:22;;;;;;;;;0.00;0.00;;;;;15.99;100.00;100571.59;5103516;27;60908;-75
2022/12/31 00:46:47;;;;;;;;;0.00;0.00;;;;;16.00;100.00;100572.47;5098915;27;45275;-78
2022/12/31 00:49:13;;;;;;;;;2.00;0.33;;;;;16.02;100.00;100586.63;5100702;27;45319;-76
2022/12/31 00:51:39;;;;;;;;;1.67;0.00;;;;;16.05;100.00;100573.28;5112828;27;45195;-79
2022/12/31 00:54:04;;;;;;;;;0.00;0.00;;;;;16.02;100.00;100582.19;5111167;27;45521;-76
2022/12/31 00:56:31;;;;;;;;;0.00;0.00;;;;;15.98;100.00;100569.84;5114966;27;45312;-75
2022/12/31 00:58:58;;;;;;;;;0.00;0.00;;;;;16.04;100.00;100574.19;5118121;27;45450;-78
2022/12/31 01:01:29;;;;;;;;;0.00;0.00;;;;;16.01;100.00;100569.78;5114760;27;45470;-74
2022/12/31 01:04:00;;;;;;;;;2.00;0.00;;;;;16.02;100.00;100589.31;5112898;27;46109;-77
2022/12/31 01:06:26;;;;;;;;;1.00;0.00;;;;;16.03;100.00;100580.41;5106696;27;46389;-77
2022/12/31 01:08:54;;;;;;;;;0.00;0.00;;;;;16.06;100.00;100588.34;5098829;27;45298;-76
2022/12/31 01:11:22;;;;;;;;;0.00;0.00;;;;;16.08;100.00;100592.75;5104465;27;45555;-76
2022/12/31 01:13:56;;;;;;;;;3.00;0.00;;;;;16.08;100.00;100590.09;5111942;27;47496;-73
2022/12/31 01:16:25;;;;;;;;;0.00;0.00;;;;;16.13;100.00;100584.69;5094103;27;45307;-76
2022/12/31 01:18:51;;;;;;;;;2.00;0.00;;;;;16.12;100.00;100597.13;5112072;27;45312;-74
2022/12/31 01:21:17;;;;;;;;;0.00;0.00;;;;;16.09;100.00;100597.19;5099559;27;45318;-75
2022/12/31 01:23:42;;;;;;;;;1.00;0.00;;;;;16.11;100.00;100592.72;5098147;27;45609;-75
2022/12/31 01:26:10;;;;;;;;;1.67;0.00;;;;;16.11;100.00;100616.69;5118281;27;49590;-75
2022/12/31 01:28:35;;;;;;;;;0.00;0.00;;;;;16.14;100.00;100598.00;5098379;27;45468;-74
2022/12/31 01:31:09;;;;;;;;;0.00;0.00;;;;;16.20;100.00;100597.03;5115229;27;49411;-75
2022/12/31 01:33:35;;;;;;;;;0.67;0.00;;;;;16.18;100.00;100618.34;5112427;27;45592;-74
2022/12/31 01:36:05;;;;;;;;;0.00;0.00;;;;;16.20;100.00;100615.66;5097204;27;45558;-76
2022/12/31 01:38:30;;;;;;;;;2.67;0.00;;;;;16.19;100.00;100600.56;5093010;27;45378;-74
2022/12/31 01:40:56;;;;;;;;;2.33;0.00;;;;;16.23;100.00;100620.94;5103397;27;45440;-76
2022/12/31 01:43:21;;;;;;;;;0.00;0.00;;;;;16.26;100.00;100606.69;5103384;27;49995;-75
2022/12/31 01:45:52;;;;;;;;;0.00;0.00;;;;;16.31;100.00;100632.38;5099248;27;45365;-75
2022/12/31 01:48:24;;;;;;;;;1.00;0.00;;;;;16.33;100.00;100616.34;5099243;27;45389;-74
2022/12/31 01:50:49;;;;;;;;;0.00;0.00;;;;;16.34;100.00;100608.31;5099215;27;45471;-75
2022/12/31 01:53:16;;;;;;;;;1.00;0.00;;;;;16.36;100.00;100618.97;5113036;27;46286;-76
2022/12/31 01:55:52;;;;;;;;;3.00;0.00;;;;;16.37;100.00;100623.41;5085259;27;45324;-76
2022/12/31 01:58:22;;;;;;;;;0.00;0.00;;;;;16.38;100.00;100633.13;5091936;27;45882;-75
2022/12/31 02:00:48;;;;;;;;;0.00;0.00;;;;;16.36;100.00;100640.28;5108487;27;45603;-74
2022/12/31 02:03:14;;;;;;;;;0.00;0.00;;;;;16.38;100.00;100633.13;5091315;27;45767;-75
2022/12/31 02:06:18;;;;;;;;;1.00;0.00;;;;;16.42;100.00;100640.19;5115033;27;45635;-76
2022/12/31 02:08:44;;;;;;;;;0.00;0.00;;;;;16.42;100.00;100635.75;5106963;27;45642;-76
2022/12/31 02:11:28;;;;;;;;;1.00;0.00;;;;;16.41;100.00;100654.44;5111221;27;45494;-75
2022/12/31 02:13:55;;;;;;;;;0.00;0.00;;;;;16.43;100.00;100631.28;5104691;27;46951;-75
2022/12/31 02:16:39;;;;;;;;;0.00;0.00;;;;;16.41;100.00;100639.31;5090368;27;45249;-76
2022/12/31 02:19:23;;;;;;;;;0.00;0.00;;;;;16.41;100.00;100641.09;5103801;27;45356;-75
2022/12/31 02:21:56;;;;;;;;;1.33;0.00;;;;;16.40;100.00;100661.50;5115227;27;45730;-75
2022/12/31 02:24:55;;;;;;;;;0.00;0.00;;;;;16.42;100.00;100645.53;5081522;27;45462;-76
2022/12/31 02:27:33;;;;;;;;;0.00;0.00;;;;;16.42;100.00;100629.53;5115206;27;45316;-75
2022/12/31 02:30:10;;;;;;;;;0.00;0.00;;;;;16.39;100.00;100649.09;5110004;27;45310;-74
2022/12/31 02:32:38;;;;;;;;;0.00;0.00;;;;;16.43;100.00;100647.28;5109480;27;45297;-75
2022/12/31 02:35:12;;;;;;;;;1.67;0.00;;;;;16.40;100.00;100631.31;5105284;27;46748;-75
2022/12/31 02:37:40;;;;;;;;;0.00;0.00;;;;;16.41;100.00;100649.97;5096847;27;45368;-76
2022/12/31 02:40:10;;;;;;;;;0.00;0.00;;;;;16.37;100.00;100672.25;5092795;27;45408;-75
2022/12/31 02:42:35;;;;;;;;;0.00;0.00;;;;;16.43;100.00;100657.94;5103622;27;45534;-75
2022/12/31 02:45:00;;;;;;;;;3.00;0.00;;;;;16.43;100.00;100653.47;5098409;27;53506;-74
2022/12/31 02:47:46;;;;;;;;;0.00;0.00;;;;;16.43;100.00;100658.81;5097408;27;60148;-75
2022/12/31 02:50:26;;;;;;;;;1.33;0.00;;;;;16.44;100.00;100641.91;5105727;27;45355;-76
2022/12/31 02:53:12;;;;;;;;;2.00;0.00;;;;;16.47;100.00;100659.66;5100571;27;45520;-76
2022/12/31 02:55:46;;;;;;;;;0.00;0.00;;;;;16.45;100.00;100650.78;5109185;27;45533;-75
2022/12/31 03:04:32;;;;;;;;;0.00;0.00;;;;;16.44;100.00;100665.91;5112482;27;45353;-73
2022/12/31 03:07:09;;;;;;;;;1.00;1.00;;;;;16.48;100.00;100675.63;5093546;27;46338;-74
2022/12/31 03:09:35;;;;;;;;;1.33;0.00;;;;;16.50;100.00;100664.91;5109123;27;45370;-75
2022/12/31 03:14:45;;;;;;;;;1.00;0.00;;;;;16.56;100.00;100682.59;5105858;27;45271;-74
2022/12/31 03:17:11;;;;;;;;;0.00;0.00;;;;;16.55;100.00;100673.72;5104985;27;46844;-74
2022/12/31 03:22:26;;;;;;;;;0.00;0.00;;;;;16.55;100.00;100668.38;5113817;27;45334;-77
2022/12/31 03:27:40;;;;;;;;;0.67;0.00;;;;;16.60;100.00;100676.31;5108694;27;45424;-74
2022/12/31 03:30:06;;;;;;;;;1.00;0.00;;;;;16.61;100.00;100667.41;5115156;27;45379;-74
2022/12/31 03:32:31;;;;;;;;;2.00;0.00;;;;;16.60;100.00;100658.53;5116832;27;45387;-77
2022/12/31 03:34:56;;;;;;;;;0.00;0.00;;;;;16.61;100.00;100662.94;5112297;27;45545;-75
2022/12/31 03:37:22;;;;;;;;;0.00;0.00;;;;;16.60;100.00;100681.66;5111807;27;62517;-77
2022/12/31 03:39:47;;;;;;;;;0.00;0.00;;;;;16.60;100.00;100690.53;5109383;27;59865;-77
2022/12/31 03:42:13;;;;;;;;;0.00;0.00;;;;;16.56;100.00;100686.13;5108014;27;58839;-75
2022/12/31 03:44:38;;;;;;;;;0.00;0.00;;;;;16.59;100.00;100714.56;5116408;27;52428;-76
2022/12/31 03:47:03;;;;;;;;;1.33;0.67;;;;;16.55;100.00;100675.50;5103443;27;66784;-75
2022/12/31 03:49:29;;;;;;;;;0.00;0.00;;;;;16.58;100.00;100689.69;5107197;27;45464;-76
2022/12/31 03:51:54;;;;;;;;;1.33;0.00;;;;;16.58;100.00;100688.81;5111026;27;54436;-76
2022/12/31 03:54:19;;;;;;;;;2.00;0.67;;;;;16.60;100.00;100686.97;5103289;27;54165;-76
2022/12/31 03:56:45;;;;;;;;;0.00;0.00;;;;;16.61;100.00;100689.59;5100835;27;61333;-75
2022/12/31 03:59:10;;;;;;;;;1.00;1.00;;;;;16.61;100.00;100678.06;5100378;27;53879;-75
2022/12/31 04:01:35;;;;;;;;;0.00;0.00;;;;;16.63;100.00;100692.28;5118029;27;45224;-75
2022/12/31 04:04:01;;;;;;;;;1.33;0.00;;;;;16.59;100.00;100682.56;5112879;27;55943;-76
2022/12/31 04:06:26;;;;;;;;;1.67;0.00;;;;;16.60;100.00;100698.53;5107969;27;60404;-77
2022/12/31 04:08:51;;;;;;;;;0.00;0.00;;;;;16.54;100.00;100698.63;5117012;27;49925;-75
2022/12/31 04:11:17;;;;;;;;;2.00;0.00;;;;;16.56;100.00;100695.94;5104351;27;58649;-76
2022/12/31 04:13:42;;;;;;;;;2.00;0.00;;;;;16.50;100.00;100692.44;5113393;27;50818;-76
2022/12/31 04:16:07;;;;;;;;;0.00;0.00;;;;;16.55;100.00;100700.38;5102701;27;60808;-76
2022/12/31 04:18:33;;;;;;;;;0.00;0.00;;;;;16.51;100.00;100682.66;5104399;27;45501;-74
2022/12/31 04:21:02;;;;;;;;;0.67;0.33;;;;;16.49;100.00;100687.16;5100367;27;54362;-75
2022/12/31 04:23:28;;;;;;;;;2.00;0.00;;;;;16.44;100.00;100681.00;5099833;27;45239;-75
2022/12/31 04:25:53;;;;;;;;;1.00;0.00;;;;;16.45;100.00;100682.75;5105999;27;63384;-75
2022/12/31 04:28:18;;;;;;;;;0.33;0.33;;;;;16.45;100.00;100678.31;5115575;27;59763;-75
2022/12/31 04:30:44;;;;;;;;;1.00;1.00;;;;;16.43;100.00;100679.25;5116366;27;45346;-74
2022/12/31 04:33:09;;;;;;;;;0.33;0.00;;;;;16.42;100.00;100698.81;5113719;27;45390;-76
2022/12/31 04:35:35;;;;;;;;;0.67;0.00;;;;;16.42;100.00;100713.03;5111057;27;61263;-74
2022/12/31 04:38:00;;;;;;;;;0.67;0.67;;;;;16.45;100.00;100688.09;5110984;27;45387;-76
2022/12/31 04:40:25;;;;;;;;;3.67;0.00;;;;;16.50;100.00;100710.22;5106788;27;54345;-76
2022/12/31 04:42:51;;;;;;;;;0.00;0.00;;;;;16.47;100.00;100699.63;5118244;27;45227;-76
2022/12/31 04:45:16;;;;;;;;;1.67;0.33;;;;;16.55;100.00;100696.84;5109456;27;63578;-76
2022/12/31 04:47:41;;;;;;;;;2.00;1.00;;;;;16.54;100.00;100689.75;5105109;27;53444;-77
2022/12/31 04:50:07;;;;;;;;;2.00;0.00;;;;;16.49;100.00;100697.81;5107730;27;55387;-74
2022/12/31 04:52:32;;;;;;;;;0.00;0.00;;;;;16.55;100.00;100697.72;5108102;27;45129;-76
2022/12/31 04:54:58;;;;;;;;;2.00;0.00;;;;;16.51;100.00;100701.31;5100851;27;46474;-75
2022/12/31 04:57:23;;;;;;;;;3.00;0.67;;;;;16.55;100.00;100692.38;5099494;27;59752;-77
2022/12/31 04:59:48;;;;;;;;;0.67;0.00;;;;;16.55;100.00;100694.16;5101984;27;45350;-77
2022/12/31 05:02:14;;;;;;;;;0.00;0.00;;;;;16.55;100.00;100686.16;5117997;27;53482;-75
2022/12/31 05:04:39;;;;;;;;;0.33;0.33;;;;;16.53;100.00;100693.31;5108007;27;50606;-77
2022/12/31 05:07:04;;;;;;;;;0.00;0.00;;;;;16.58;100.00;100731.44;5110592;27;54952;-74
2022/12/31 05:09:30;;;;;;;;;0.33;0.33;;;;;16.59;100.00;100712.75;5103212;27;45357;-76
2022/12/31 05:11:55;;;;;;;;;2.00;1.00;;;;;16.57;100.00;100706.59;5108301;27;45582;-74
2022/12/31 05:14:21;;;;;;;;;1.00;1.00;;;;;16.62;100.00;100722.47;5106897;27;57861;-74
2022/12/31 05:16:46;;;;;;;;;0.00;0.00;;;;;16.64;100.00;100728.69;5103536;27;45460;-76
2022/12/31 05:19:11;;;;;;;;;4.67;0.00;;;;;16.60;100.00;100722.50;5098943;27;45464;-74
2022/12/31 05:21:37;;;;;;;;;2.00;0.00;;;;;16.62;100.00;100723.38;5099471;27;45492;-75
2022/12/31 05:24:02;;;;;;;;;3.67;1.00;;;;;16.65;100.00;100733.97;5103931;27;46344;-74
2022/12/31 05:26:28;;;;;;;;;0.00;0.00;;;;;16.65;100.00;100736.66;5116793;27;45451;-76
2022/12/31 05:28:55;;;;;;;;;0.67;0.33;;;;;16.65;100.00;100719.78;5113907;27;54479;-74
2022/12/31 05:31:21;;;;;;;;;1.67;0.00;;;;;16.55;100.00;100723.50;5114740;27;45437;-75
2022/12/31 05:33:46;;;;;;;;;0.00;0.00;;;;;16.60;100.00;100732.28;5109416;27;47009;-75
2022/12/31 05:36:12;;;;;;;;;1.00;1.00;;;;;16.56;100.00;100730.56;5111464;27;45424;-75
2022/12/31 05:38:37;;;;;;;;;2.33;1.00;;;;;16.53;100.00;100727.97;5191744;22;46068;-75
2022/12/31 05:41:04;;;;;;;;;1.00;1.00;;;;;16.57;100.00;100735.03;5101520;27;45359;-76
2022/12/31 05:43:31;;;;;;;;;0.33;0.33;;;;;16.53;100.00;100744.84;5090032;27;46469;-75
2022/12/31 05:46:02;;;;;;;;;2.33;1.00;;;;;16.58;100.00;100745.66;5097523;27;45402;-77
2022/12/31 05:48:27;;;;;;;;;0.00;0.00;;;;;16.58;100.00;100740.31;5091932;27;45334;-75
2022/12/31 05:50:53;;;;;;;;;4.00;1.00;;;;;16.58;100.00;100740.31;5097684;27;45290;-74
2022/12/31 05:53:18;;;;;;;;;2.00;0.00;;;;;16.58;100.00;100751.00;5097643;27;46262;-77
2022/12/31 05:55:46;;;;;;;;;0.00;0.00;;;;;16.56;100.00;100758.09;5097368;27;45540;-75
2022/12/31 05:58:11;;;;;;;;;1.67;0.00;;;;;16.58;100.00;100758.09;5096505;27;45240;-77
2022/12/31 06:00:36;;;;;;;;;1.00;1.00;;;;;16.56;100.00;100749.22;5069424;27;45280;-75
2022/12/31 06:03:02;;;;;;;;;0.33;0.00;;;;;16.55;100.00;100751.03;5096386;27;62106;-75
2022/12/31 06:05:27;;;;;;;;;2.67;1.00;;;;;16.54;100.00;100738.59;5096898;27;59187;-75
2022/12/31 06:07:52;;;;;;;;;0.67;0.00;;;;;16.53;100.00;100739.50;5096753;27;56377;-77
2022/12/31 06:10:18;;;;;;;;;2.00;1.00;;;;;16.54;100.00;100754.59;5096798;27;51778;-76
2022/12/31 06:12:43;;;;;;;;;1.00;0.00;;;;;16.56;100.00;100767.91;5093151;27;60648;-76
2022/12/31 06:15:09;;;;;;;;;2.00;2.00;;;;;16.56;100.00;100771.44;5096827;27;45392;-76
2022/12/31 06:17:34;;;;;;;;;1.33;0.67;;;;;16.53;100.00;100765.28;5097272;27;45500;-77
2022/12/31 06:19:59;;;;;;;;;2.00;1.00;;;;;16.49;100.00;100760.00;5097226;27;45267;-75
2022/12/31 06:22:25;;;;;;;;;2.33;0.33;;;;;16.55;100.00;100769.69;5096480;27;60306;-76
2022/12/31 06:24:50;;;;;;;;;3.00;1.00;;;;;16.54;100.00;100761.72;5096834;27;45356;-75
2022/12/31 06:27:16;;;;;;;;;1.00;1.00;;;;;16.56;100.00;100789.22;5096910;27;45274;-75
2022/12/31 06:29:41;;;;;;;;;0.00;0.00;;;;;16.54;100.00;100781.25;5097167;27;45555;-74
2022/12/31 06:32:06;;;;;;;;;0.00;0.00;;;;;16.56;100.00;100786.56;5078709;27;46324;-75
2022/12/31 06:34:32;;;;;;;;;2.00;0.67;;;;;16.57;100.00;100783.88;5096959;27;45384;-77
2022/12/31 06:36:58;;;;;;;;;1.00;1.00;;;;;16.56;100.00;100787.44;5086213;27;53276;-77
2022/12/31 06:39:23;;;;;;;;;1.00;1.00;;;;;16.53;100.00;100787.50;5089621;27;45490;-75
2022/12/31 06:41:49;;;;;;;;;4.00;1.00;;;;;16.50;100.00;100780.41;5076250;28;45349;-78
2022/12/31 06:44:14;;;;;;;;;0.67;0.67;;;;;16.52;100.00;100774.19;5057895;28;54531;-76
2022/12/31 06:46:40;;;;;;;;;3.33;1.00;;;;;16.54;100.00;100789.25;5058467;28;45231;-77
2022/12/31 06:49:05;;;;;;;;;2.00;1.00;;;;;16.53;100.00;100792.81;5080976;27;55405;-76
2022/12/31 06:51:31;;;;;;;;;3.00;1.00;;;;;16.55;100.00;100796.34;5061528;28;46532;-75
2022/12/31 06:53:56;;;;;;;;;1.33;1.00;;;;;16.59;100.00;100806.06;5044997;28;45241;-75
2022/12/31 06:56:24;;;;;;;;;4.00;0.00;;;;;16.57;100.00;100802.56;5061359;28;52362;-76
2022/12/31 06:58:50;;;;;;;;;3.67;1.00;;;;;16.62;100.00;100818.44;5080035;28;45366;-75
2022/12/31 07:01:25;;;;;;;;;2.00;1.00;;;;;16.63;100.00;100820.25;5069280;28;45750;-75
2022/12/31 07:04:02;;;;;;;;;0.67;0.00;;;;;16.62;100.00;100808.69;5079611;28;45298;-74
2022/12/31 07:06:29;;;;;;;;;2.00;0.33;;;;;16.63;100.00;100801.56;5079698;28;45531;-76
2022/12/31 07:09:13;;;;;;;;;5.00;1.00;;;;;16.62;100.00;100808.69;5078636;28;45486;-77
2022/12/31 07:11:55;;;;;;;;;2.33;1.67;;;;;16.62;100.00;100822.03;5078113;28;45825;-75
2022/12/31 07:14:29;;;;;;;;;1.33;0.33;;;;;16.63;100.00;100807.78;5056535;28;45366;-75
2022/12/31 07:17:25;;;;;;;;;3.00;1.00;;;;;16.63;100.00;100815.78;5079626;28;45339;-76
2022/12/31 07:20:02;;;;;;;;;2.00;1.00;;;;;16.60;100.00;100810.47;5078556;28;45398;-76
2022/12/31 07:22:28;;;;;;;;;3.00;1.00;;;;;16.59;100.00;100798.06;5079594;28;46457;-76
2022/12/31 07:24:54;;;;;;;;;1.67;1.00;;;;;16.58;100.00;100790.09;5079358;28;45375;-75
2022/12/31 07:27:55;;;;;;;;;1.33;1.00;;;;;16.60;100.00;100818.47;5079327;28;45213;-77
2022/12/31 07:30:28;;;;;;;;;1.33;1.33;;;;;16.54;100.00;100809.69;5063300;28;45869;-75
2022/12/31 07:33:35;;;;;;;;;3.00;3.00;;;;;16.59;100.00;100834.50;5061066;28;45482;-76
2022/12/31 07:36:10;;;;;;;;;1.00;1.00;;;;;16.56;100.00;100810.53;5041143;28;45408;-75
2022/12/31 07:38:41;;;;;;;;;3.67;1.00;;;;;16.58;100.00;100846.97;5078791;28;45382;-74
2022/12/31 07:41:22;;;;;;;;;2.00;2.00;;;;;16.57;100.00;100823.00;5088708;27;45605;-77
2022/12/31 07:44:07;;;;;;;;;1.00;1.00;;;;;16.55;100.00;100816.78;5077789;28;46811;-75
2022/12/31 07:46:47;;;;;;;;;3.00;1.00;;;;;16.57;100.00;100849.66;5078745;28;45317;-75
2022/12/31 07:49:13;;;;;;;;;3.00;1.00;;;;;16.53;100.00;100843.47;5078987;28;45420;-75
2022/12/31 07:51:39;;;;;;;;;1.00;1.00;;;;;16.50;100.00;100838.16;5079012;28;45445;-74
2022/12/31 07:54:05;;;;;;;;;3.00;1.00;;;;;16.52;100.00;100851.50;5078836;28;46525;-76
2022/12/31 07:56:30;;;;;;;;;3.00;2.00;;;;;16.51;100.00;100858.59;5078675;28;58109;-76
2022/12/31 07:59:03;;;;;;;;;2.67;1.00;;;;;16.55;100.00;100860.31;5078030;28;45311;-76
2022/12/31 08:01:58;;;;;;;;;3.33;1.00;;;;;16.54;100.00;100852.34;5050749;28;45540;-75
2022/12/31 08:04:33;;;;;;;;;2.00;2.00;;;;;16.57;100.00;100871.84;5053095;28;47414;-78
2022/12/31 08:07:04;;;;;;;;;2.00;2.00;;;;;16.59;100.00;100883.38;5071356;28;45483;-77
2022/12/31 08:10:05;;;;;;;;;4.67;2.00;;;;;16.60;100.00;100844.25;5078888;28;45365;-77
2022/12/31 08:12:34;;;;;;;;;3.00;2.00;;;;;16.60;100.00;100865.59;5053064;28;45624;-76
2022/12/31 08:15:00;;;;;;;;;5.00;2.67;;;;;16.60;100.00;100866.47;5056561;28;46538;-75
2022/12/31 08:17:26;;;;;;;;;2.00;2.00;;;;;16.57;100.00;100860.31;5078425;28;45150;-74
2022/12/31 08:19:52;;;;;;;;;1.33;1.33;;;;;16.55;100.00;100865.66;5060482;28;45201;-75
2022/12/31 08:22:35;;;;;;;;;1.33;1.00;;;;;16.60;100.00;100884.25;5078898;28;45419;-74
2022/12/31 08:25:18;;;;;;;;;2.00;2.00;;;;;16.60;100.00;100876.25;5078135;28;45443;-75
2022/12/31 08:28:09;;;;;;;;;2.00;2.00;;;;;16.59;100.00;100888.69;5085096;27;45305;-75
2022/12/31 08:30:40;;;;;;;;;5.00;3.00;;;;;16.59;100.00;100894.03;5048816;28;46805;-75
2022/12/31 08:33:18;;;;;;;;;2.67;2.00;;;;;16.61;100.00;100886.00;5078679;28;45374;-76
2022/12/31 08:36:02;;;;;;;;;3.00;2.00;;;;;16.56;100.00;100901.19;5078155;28;46225;-74
2022/12/31 08:38:36;;;;;;;;;1.00;1.00;;;;;16.60;100.00;100897.56;5088706;27;45446;-75
2022/12/31 08:41:02;;;;;;;;;2.67;2.00;;;;;16.60;100.00;100917.13;5093583;27;45146;-75
2022/12/31 08:43:48;;;;;;;;;3.00;2.00;;;;;16.59;100.00;100901.16;5098823;27;45513;-76
2022/12/31 08:47:03;;;;;;;;;1.00;1.00;;;;;16.61;100.00;100902.88;5078040;27;47452;-75
2022/12/31 08:49:31;;;;;;;;;3.00;2.00;;;;;16.58;100.00;100932.25;5064322;27;45610;-76
2022/12/31 08:51:57;;;;;;;;;3.00;2.00;;;;;16.58;100.00;100923.38;5098765;27;45327;-75
2022/12/31 08:54:23;;;;;;;;;2.67;1.67;;;;;16.60;100.00;100916.25;5098370;27;45460;-74
2022/12/31 08:56:52;;;;;;;;;2.00;2.00;;;;;16.57;100.00;100930.50;5097269;27;46076;-78
2022/12/31 08:59:23;;;;;;;;;2.33;2.33;;;;;16.58;100.00;100921.59;5098393;27;45368;-76
2022/12/31 09:02:17;;;;;;;;;3.33;3.33;;;;;16.60;100.00;100934.91;5098491;27;45727;-76
2022/12/31 09:04:58;;;;;;;;;4.00;2.00;;;;;16.57;100.00;100932.28;5098422;27;45259;-76
2022/12/31 09:07:36;;;;;;;;;2.00;2.00;;;;;16.60;100.00;100937.56;5086219;27;46609;-74
2022/12/31 09:10:04;;;;;;;;;3.00;2.00;;;;;16.61;100.00;100950.88;5097036;27;45507;-75
2022/12/31 09:12:44;;;;;;;;;7.00;2.33;;;;;16.64;100.00;100939.31;5094998;27;45407;-74
2022/12/31 09:15:29;;;;;;;;;4.00;3.00;;;;;16.63;100.00;100933.09;5096977;27;45413;-74
2022/12/31 09:17:54;;;;;;;;;2.33;2.33;;;;;16.66;100.00;100945.47;5096695;27;46643;-74
2022/12/31 09:20:24;;;;;;;;;3.33;2.00;;;;;16.70;100.00;100947.22;5097753;27;45436;-75
2022/12/31 09:22:51;;;;;;;;;2.67;2.00;;;;;16.72;100.00;100941.00;5098190;27;45370;-75
2022/12/31 09:25:18;;;;;;;;;2.00;2.00;;;;;16.71;100.00;100941.88;5098139;27;45656;-75
2022/12/31 09:27:49;;;;;;;;;2.33;2.33;;;;;16.74;100.00;100939.19;5097642;27;45693;-77
2022/12/31 09:30:15;;;;;;;;;4.00;2.00;;;;;16.78;100.00;100953.38;5097623;27;45448;-75
2022/12/31 09:33:14;;;;;;;;;4.00;2.00;;;;;16.82;100.00;100946.22;5105974;27;45244;-79
2022/12/31 09:35:41;;;;;;;;;2.00;2.00;;;;;16.83;100.00;100931.97;5077964;27;45533;-74
2022/12/31 09:38:13;;;;;;;;;2.00;2.00;;;;;16.84;100.00;100934.63;5097597;27;47497;-77
2022/12/31 09:41:14;;;;;;;;;2.00;2.00;;;;;16.85;100.00;100928.41;5097619;27;45314;-76
2022/12/31 09:44:02;;;;;;;;;2.00;2.00;;;;;16.87;100.00;100926.56;5079234;27;45331;-75
2022/12/31 09:46:39;;;;;;;;;3.00;2.00;;;;;16.88;100.00;100938.13;5085657;27;45265;-75
2022/12/31 09:49:48;;;;;;;;;2.00;2.00;;;;;16.87;100.00;100941.69;5079269;27;46574;-75
2022/12/31 09:52:35;;;;;;;;;3.00;1.00;;;;;16.89;100.00;100945.25;5092211;27;45552;-77
2022/12/31 09:55:06;;;;;;;;;5.33;1.33;;;;;16.87;100.00;100960.38;5097736;27;45339;-76
2022/12/31 09:57:46;;;;;;;;;3.00;3.00;;;;;16.82;100.00;100959.53;5097124;27;45419;-74
2022/12/31 10:00:19;;;;;;;;;3.00;1.67;;;;;16.85;100.00;100946.19;5089744;27;45823;-76
2022/12/31 10:03:06;;;;;;;;;2.00;2.00;;;;;16.89;100.00;100956.81;5093898;27;45169;-75
2022/12/31 10:05:58;;;;;;;;;3.33;2.00;;;;;16.92;100.00;100961.19;5091402;27;45248;-75
2022/12/31 10:09:01;;;;;;;;;5.00;1.33;;;;;16.95;100.00;100953.16;5097261;27;45407;-77
2022/12/31 10:11:52;;;;;;;;;4.00;1.33;;;;;16.96;100.00;100960.25;5097012;27;47506;-79
2022/12/31 10:14:32;;;;;;;;;2.00;2.00;;;;;17.00;100.00;100954.00;5086494;27;45368;-74
2022/12/31 10:17:13;;;;;;;;;2.00;2.00;;;;;17.05;100.00;100953.94;5097083;27;45363;-74
2022/12/31 10:20:04;;;;;;;;;6.00;3.00;;;;;17.08;100.00;100941.41;5079101;27;45337;-78
2022/12/31 10:22:44;;;;;;;;;3.00;3.00;;;;;17.13;100.00;100950.22;5084776;27;47590;-77
2022/12/31 10:25:26;;;;;;;;;3.00;2.00;;;;;17.19;100.00;100950.13;5081936;27;45442;-75
2022/12/31 10:28:38;;;;;;;;;3.00;3.00;;;;;17.25;100.00;100951.84;5101090;27;45193;-74
2022/12/31 10:31:23;;;;;;;;;2.00;2.00;;;;;17.28;100.00;100938.47;5034080;27;45611;-76
2022/12/31 10:33:58;;;;;;;;;5.33;2.00;;;;;17.29;100.00;100951.78;5100532;27;46084;-75
2022/12/31 10:36:41;;;;;;;;;3.00;3.00;;;;;17.32;100.00;100945.53;5100738;27;45284;-75
2022/12/31 10:39:13;;;;;;;;;2.00;2.00;;;;;17.37;100.00;100954.34;5082099;27;45659;-75
2022/12/31 10:42:00;;;;;;;;;2.33;2.33;;;;;17.38;100.00;100939.22;5100670;27;45445;-76
2022/12/31 10:45:02;;;;;;;;;3.00;3.00;;;;;17.38;100.00;100934.75;5095397;27;45406;-75
2022/12/31 10:47:56;;;;;;;;;2.00;2.00;;;;;17.39;100.00;100928.50;5100250;27;45429;-75
2022/12/31 10:50:37;;;;;;;;;3.00;2.67;;;;;17.41;100.00;100924.00;5097739;27;45565;-77
2022/12/31 10:53:31;;;;;;;;;3.00;3.00;;;;;17.47;100.00;100921.28;5083301;27;45462;-75
2022/12/31 10:56:21;;;;;;;;;3.00;3.00;;;;;17.53;100.00;100914.94;5102858;27;45524;-75
2022/12/31 10:59:11;;;;;;;;;4.00;2.67;;;;;17.61;100.00;100917.47;5101539;27;45354;-75
2022/12/31 11:01:56;;;;;;;;;1.00;1.00;;;;;17.68;100.00;100924.47;5088181;27;45457;-75
2022/12/31 11:04:43;;;;;;;;;2.00;2.00;;;;;17.69;100.00;100916.47;5082897;27;45486;-75
2022/12/31 11:07:26;;;;;;;;;3.33;2.00;;;;;17.66;100.00;100907.59;5093378;27;46359;-77
2022/12/31 11:10:10;;;;;;;;;2.00;2.00;;;;;17.66;100.00;100910.28;5099756;27;45431;-74
2022/12/31 11:12:44;;;;;;;;;2.67;2.67;;;;;17.65;100.00;100904.06;5096346;27;45506;-77
2022/12/31 11:15:16;;;;;;;;;3.00;2.00;;;;;17.62;100.00;100898.75;5099997;27;45304;-75
2022/12/31 11:17:49;;;;;;;;;2.00;1.00;;;;;17.65;100.00;100912.06;5099856;27;45843;-76
2022/12/31 11:20:36;;;;;;;;;3.00;2.00;;;;;17.67;100.00;100904.91;5081608;27;45399;-75
2022/12/31 11:23:07;;;;;;;;;2.00;2.00;;;;;17.67;100.00;100896.00;5099994;27;45200;-74
2022/12/31 11:26:00;;;;;;;;;3.00;3.00;;;;;17.72;100.00;100897.72;5099743;27;45547;-74
2022/12/31 11:28:33;;;;;;;;;4.00;3.00;;;;;17.74;100.00;100890.59;5103101;27;45700;-75
2022/12/31 11:31:14;;;;;;;;;2.67;2.67;;;;;17.76;100.00;100890.56;5090250;27;45463;-77
2022/12/31 11:34:26;;;;;;;;;4.00;3.00;;;;;17.78;100.00;100897.63;5098716;27;45340;-77
2022/12/31 11:37:10;;;;;;;;;2.00;2.00;;;;;17.81;100.00;100899.38;5083450;27;45758;-75
2022/12/31 11:39:46;;;;;;;;;3.67;2.33;;;;;17.82;100.00;100887.75;5087951;27;45458;-77
2022/12/31 11:42:33;;;;;;;;;4.67;2.00;;;;;17.85;100.00;100898.41;5078836;28;45348;-74
2022/12/31 11:45:03;;;;;;;;;1.00;1.00;;;;;17.89;100.00;100888.53;5061051;28;45513;-77
2022/12/31 11:47:39;;;;;;;;;4.00;2.00;;;;;17.92;100.00;100888.47;5060234;28;45392;-74
2022/12/31 11:50:20;;;;;;;;;6.00;3.00;;;;;17.94;100.00;100887.53;5077648;28;46198;-75
2022/12/31 11:53:00;;;;;;;;;2.00;2.00;;;;;17.95;100.00;100881.31;5078764;28;45455;-75
2022/12/31 11:55:34;;;;;;;;;5.00;3.00;;;;;17.96;100.00;100883.06;5079001;28;45507;-76